Time;durP1;ratioP1;P1;durP2;ratioP2;P2;SDS_P1;SDS_P2;PMS_P1;PMS_P2;Temp;Humidity;BMP_temperature;BMP_pressure;BME280_temperature;BME280_humidity;BME280_pressure;Samples;Min_cycle;Max_cycle;Signal;HPM_P1;HPM_P2
2022/06/12 00:01:32;;;;;;;5.00;4.07;;;15.80;99.90;;;;;;5000985;28;20046;-85
2022/06/12 00:03:58;;;;;;;3.95;3.60;;;15.70;99.90;;;;;;5000053;28;20073;-84
2022/06/12 00:06:25;;;;;;;4.47;3.50;;;15.60;99.90;;;;;;5000934;28;20417;-86
2022/06/12 00:08:57;;;;;;;5.18;3.90;;;15.60;99.90;;;;;;4997510;28;20493;-85
2022/06/12 00:11:29;;;;;;;8.20;3.83;;;15.50;99.90;;;;;;4970115;28;20068;-85
2022/06/12 00:13:59;;;;;;;5.03;3.63;;;15.40;99.90;;;;;;5001079;28;20054;-85
2022/06/12 00:16:28;;;;;;;4.88;3.85;;;15.40;99.90;;;;;;4998481;28;20141;-86
2022/06/12 00:19:01;;;;;;;4.68;3.60;;;15.30;99.90;;;;;;5001479;28;20056;-86
2022/06/12 00:21:33;;;;;;;4.80;3.72;;;15.30;99.90;;;;;;5011849;28;20138;-85
2022/06/12 00:24:12;;;;;;;4.80;4.00;;;15.30;99.90;;;;;;5017681;28;20042;-86
2022/06/12 00:26:41;;;;;;;;;;;15.30;99.90;;;;;;5000464;28;20148;-86
2022/06/12 00:29:12;;;;;;;7.15;4.03;;;15.20;99.90;;;;;;4989698;28;19971;-86
2022/06/12 00:31:42;;;;;;;5.70;3.83;;;15.20;99.90;;;;;;5001930;28;20058;-85
2022/06/12 00:34:12;;;;;;;4.35;3.80;;;15.20;99.90;;;;;;4999425;28;20050;-86
2022/06/12 00:36:39;;;;;;;6.22;3.63;;;15.20;99.90;;;;;;4996732;28;20086;-85
2022/06/12 00:39:08;;;;;;;4.35;3.75;;;15.10;99.90;;;;;;4999615;28;20077;-85
2022/06/12 00:41:42;;;;;;;4.93;3.80;;;15.10;99.90;;;;;;5018138;28;20045;-85
2022/06/12 00:44:13;;;;;;;4.90;4.03;;;15.10;99.90;;;;;;4998720;28;20056;-85
2022/06/12 00:46:57;;;;;;;4.70;4.13;;;15.00;99.90;;;;;;5000973;28;20519;-85
2022/06/12 00:49:35;;;;;;;6.03;4.00;;;15.00;99.90;;;;;;5015164;28;20077;-85
2022/06/12 00:52:14;;;;;;;3.97;3.58;;;14.90;99.90;;;;;;4999268;28;20050;-85
2022/06/12 00:54:50;;;;;;;4.82;3.60;;;14.90;99.90;;;;;;4993450;28;20049;-86
2022/06/12 00:57:21;;;;;;;3.90;3.50;;;14.80;99.90;;;;;;5000428;28;20125;-85
2022/06/12 00:59:58;;;;;;;6.97;3.70;;;14.70;99.90;;;;;;4994128;28;20131;-86
2022/06/12 01:02:34;;;;;;;7.45;3.90;;;14.70;99.90;;;;;;4995023;28;20122;-86
2022/06/12 01:08:03;;;;;;;4.55;3.70;;;14.60;99.90;;;;;;4999008;28;20034;-86
2022/06/12 01:10:38;;;;;;;4.95;3.58;;;14.60;99.90;;;;;;5012140;28;20046;-86
2022/06/12 01:13:22;;;;;;;5.45;4.53;;;14.60;99.90;;;;;;5015933;28;20064;-85
2022/06/12 01:15:52;;;;;;;5.72;3.28;;;14.60;99.90;;;;;;4990714;28;20046;-86
2022/06/12 01:18:28;;;;;;;4.00;3.60;;;14.60;99.90;;;;;;4994569;28;20034;-85
2022/06/12 01:21:22;;;;;;;4.82;3.35;;;14.70;99.90;;;;;;5000199;28;20052;-86
2022/06/12 01:23:57;;;;;;;3.88;3.40;;;14.60;99.90;;;;;;5003834;28;20042;-85
2022/06/12 01:26:54;;;;;;;4.00;3.40;;;14.60;99.90;;;;;;5002839;28;20137;-86
2022/06/12 01:29:28;;;;;;;3.28;2.97;;;14.50;99.90;;;;;;4989460;28;20042;-86
2022/06/12 01:32:38;;;;;;;6.35;3.67;;;14.50;99.90;;;;;;5003313;28;20132;-86
2022/06/12 01:35:22;;;;;;;5.65;3.78;;;14.50;99.90;;;;;;4998079;28;20042;-86
2022/06/12 01:38:16;;;;;;;5.55;3.40;;;14.50;99.90;;;;;;4995607;28;20030;-85
2022/06/12 01:40:56;;;;;;;5.05;3.50;;;14.50;99.90;;;;;;5003378;28;20037;-85
2022/06/12 01:43:45;;;;;;;4.78;3.38;;;14.40;99.90;;;;;;5015497;28;20112;-86
2022/06/12 01:46:30;;;;;;;3.28;2.97;;;14.40;99.90;;;;;;4986859;28;20442;-86
2022/06/12 01:49:13;;;;;;;3.88;3.25;;;14.40;99.90;;;;;;5002630;28;20049;-86
2022/06/12 01:52:09;;;;;;;4.20;3.30;;;14.30;99.90;;;;;;4986194;28;20045;-86
2022/06/12 01:54:49;;;;;;;4.93;3.55;;;14.30;99.90;;;;;;4989370;28;20499;-86
2022/06/12 01:57:54;;;;;;;4.22;3.22;;;14.30;99.90;;;;;;5002748;28;20105;-86
2022/06/12 02:00:24;;;;;;;4.05;3.50;;;14.30;99.90;;;;;;5017513;28;20589;-85
2022/06/12 02:03:10;;;;;;;3.67;3.13;;;14.30;99.90;;;;;;5017522;28;20229;-86
2022/06/12 02:05:51;;;;;;;3.83;3.53;;;14.30;99.90;;;;;;5015022;28;20050;-86
2022/06/12 02:08:25;;;;;;;6.88;3.25;;;14.20;99.90;;;;;;5000424;28;20106;-85
2022/06/12 02:10:56;;;;;;;;;;;14.20;99.90;;;;;;5002173;28;20080;-85
2022/06/12 02:13:29;;;;;;;3.40;3.03;;;14.20;99.90;;;;;;4980589;28;19921;-86
2022/06/12 02:16:06;;;;;;;3.50;3.20;;;14.10;99.90;;;;;;4997220;28;20052;-85
2022/06/12 02:18:41;;;;;;;3.55;3.22;;;14.10;99.90;;;;;;5002249;28;20050;-86
2022/06/12 02:21:41;;;;;;;3.47;3.10;;;14.10;99.90;;;;;;5001638;28;20042;-86
2022/06/12 02:24:19;;;;;;;3.38;3.08;;;14.10;99.90;;;;;;4997803;28;20125;-87
2022/06/12 02:27:02;;;;;;;4.05;3.35;;;14.00;99.90;;;;;;4991233;28;20054;-86
2022/06/12 02:29:35;;;;;;;5.55;3.60;;;14.00;99.90;;;;;;5016285;28;20085;-86
2022/06/12 02:32:08;;;;;;;4.05;3.03;;;13.90;99.90;;;;;;5002504;28;20053;-86
2022/06/12 02:34:39;;;;;;;3.83;3.38;;;13.90;99.90;;;;;;5000953;28;20053;-87
2022/06/12 02:37:15;;;;;;;3.38;2.97;;;13.90;99.90;;;;;;4986495;28;20041;-85
2022/06/12 02:39:47;;;;;;;3.67;3.30;;;13.90;99.90;;;;;;5002081;28;20073;-85
2022/06/12 02:42:19;;;;;;;5.95;3.45;;;13.90;99.90;;;;;;4995293;28;20141;-85
2022/06/12 02:45:07;;;;;;;4.47;3.70;;;13.90;99.90;;;;;;4995791;28;20069;-85
2022/06/12 02:47:37;;;;;;;4.47;3.35;;;13.90;99.90;;;;;;4995437;28;20498;-85
2022/06/12 02:50:13;;;;;;;4.20;3.20;;;13.90;99.90;;;;;;4998630;28;20074;-85
2022/06/12 02:53:05;;;;;;;3.78;3.38;;;13.80;99.90;;;;;;5002326;28;20052;-82
2022/06/12 02:55:46;;;;;;;4.18;3.30;;;13.80;99.90;;;;;;5001031;28;20041;-86
2022/06/12 02:58:39;;;;;;;5.00;3.42;;;13.80;99.90;;;;;;5000587;28;20069;-86
2022/06/12 03:01:16;;;;;;;3.80;3.40;;;13.80;99.90;;;;;;5018256;28;20048;-86
2022/06/12 03:03:54;;;;;;;3.90;3.60;;;13.80;99.90;;;;;;5001073;28;20065;-88
2022/06/12 03:06:26;;;;;;;4.18;3.70;;;13.70;99.90;;;;;;4990758;28;20057;-86
2022/06/12 03:08:58;;;;;;;4.60;3.50;;;13.70;99.90;;;;;;4999042;28;20501;-85
2022/06/12 03:11:39;;;;;;;4.13;3.13;;;13.60;99.90;;;;;;5002689;28;20077;-86
2022/06/12 03:14:14;;;;;;;3.65;3.13;;;13.50;99.90;;;;;;4998952;28;20064;-86
2022/06/12 03:16:47;;;;;;;3.85;3.30;;;13.50;99.90;;;;;;5001915;28;20045;-86
2022/06/12 03:19:27;;;;;;;4.18;3.50;;;13.50;99.90;;;;;;5003458;28;20065;-86
2022/06/12 03:22:15;;;;;;;3.65;3.17;;;13.40;99.90;;;;;;5002736;28;20489;-87
2022/06/12 03:25:18;;;;;;;4.32;3.65;;;13.40;99.90;;;;;;5001023;28;20068;-85
2022/06/12 03:28:21;;;;;;;3.85;3.40;;;13.40;99.90;;;;;;5000496;28;20507;-87
2022/06/12 03:31:12;;;;;;;5.10;3.17;;;13.40;99.90;;;;;;4998997;28;20497;-86
2022/06/12 03:34:00;;;;;;;3.53;3.22;;;13.40;99.90;;;;;;5002116;28;20140;-86
2022/06/12 03:36:40;;;;;;;4.35;3.75;;;13.40;99.90;;;;;;5017327;28;20500;-86
2022/06/12 03:39:12;;;;;;;5.55;3.80;;;13.40;99.90;;;;;;5001751;28;20596;-87
2022/06/12 03:42:03;;;;;;;3.72;3.42;;;13.40;99.90;;;;;;5020069;28;20048;-86
2022/06/12 03:44:52;;;;;;;5.75;3.40;;;13.40;99.90;;;;;;4999892;28;20048;-86
2022/06/12 03:47:39;;;;;;;4.00;3.60;;;13.40;99.90;;;;;;4996973;28;20066;-87
2022/06/12 03:50:23;;;;;;;4.32;3.80;;;13.40;99.90;;;;;;5015250;28;20043;-86
2022/06/12 03:53:01;;;;;;;4.22;3.83;;;13.40;99.90;;;;;;5019162;28;20042;-86
2022/06/12 03:58:56;;;;;;;4.38;3.42;;;13.30;99.90;;;;;;5017225;28;20121;-86
2022/06/12 04:01:31;;;;;;;3.72;3.28;;;13.40;99.90;;;;;;5000024;28;20049;-85
2022/06/12 04:04:04;;;;;;;4.28;3.60;;;13.30;99.90;;;;;;5000601;28;20229;-86
2022/06/12 04:06:36;;;;;;;;;;;13.30;99.90;;;;;;5001163;28;20133;-86
2022/06/12 04:09:16;;;;;;;5.18;3.40;;;13.30;99.90;;;;;;5001271;28;19944;-86
2022/06/12 04:11:59;;;;;;;4.32;3.35;;;13.40;99.90;;;;;;4991489;28;20042;-86
2022/06/12 04:14:35;;;;;;;4.18;3.40;;;13.40;99.90;;;;;;4999854;28;20057;-86
2022/06/12 04:17:06;;;;;;;3.30;3.00;;;13.50;99.90;;;;;;4997567;28;20412;-86
2022/06/12 04:22:54;;;;;;;4.60;3.55;;;13.60;99.90;;;;;;5016625;28;20069;-86
2022/06/12 04:26:04;;;;;;;3.97;3.58;;;13.60;99.90;;;;;;4997902;28;20052;-87
2022/06/12 04:28:38;;;;;;;4.15;3.25;;;13.60;99.90;;;;;;4950651;29;20477;-86
2022/06/12 04:31:11;;;;;;;3.78;3.33;;;13.60;99.90;;;;;;4942980;29;20043;-86
2022/06/12 04:34:05;;;;;;;4.13;3.83;;;13.60;99.90;;;;;;4993498;28;20109;-86
2022/06/12 04:36:33;;;;;;;3.33;3.00;;;13.70;99.90;;;;;;5000154;28;20136;-85
2022/06/12 04:39:00;;;;;;;3.47;3.17;;;13.80;99.90;;;;;;5018980;28;20048;-86
2022/06/12 04:41:38;;;;;;;3.55;3.25;;;13.80;99.90;;;;;;4998548;28;20128;-85
2022/06/12 04:44:10;;;;;;;5.65;3.70;;;13.90;99.90;;;;;;4998671;28;20053;-86
2022/06/12 04:46:44;;;;;;;7.45;4.07;;;13.90;99.90;;;;;;5000672;28;20466;-86
2022/06/12 04:49:17;;;;;;;6.93;4.00;;;14.00;99.90;;;;;;5001085;28;20046;-86
2022/06/12 04:51:45;;;;;;;7.77;5.03;;;14.00;99.90;;;;;;5001514;28;20073;-86
2022/06/12 04:54:12;;;;;;;7.60;5.70;;;14.10;99.90;;;;;;5000056;28;20056;-85
2022/06/12 04:56:39;;;;;;;8.40;5.70;;;14.10;99.90;;;;;;5001709;28;20592;-86
2022/06/12 04:59:07;;;;;;;8.95;6.35;;;14.20;99.90;;;;;;5002966;28;20076;-85
2022/06/12 05:01:34;;;;;;;7.85;5.68;;;14.20;99.90;;;;;;5005218;28;20113;-86
2022/06/12 05:04:06;;;;;;;11.57;5.78;;;14.20;99.90;;;;;;5003833;28;20297;-85
2022/06/12 05:06:35;;;;;;;6.68;6.00;;;14.20;99.90;;;;;;5004584;28;20112;-86
2022/06/12 05:09:09;;;;;;;6.72;6.03;;;14.30;99.90;;;;;;4992934;28;20050;-86
2022/06/12 05:11:42;;;;;;;8.05;5.90;;;14.30;99.90;;;;;;5020837;28;20064;-86
2022/06/12 05:14:14;;;;;;;9.50;6.40;;;14.40;99.90;;;;;;5016356;28;20126;-86
2022/06/12 05:16:43;;;;;;;15.80;9.15;;;14.40;99.90;;;;;;5013244;28;20081;-86
2022/06/12 05:19:16;;;;;;;15.70;9.07;;;14.40;99.90;;;;;;4988486;28;20420;-86
2022/06/12 05:21:44;;;;;;;39.75;10.82;;;14.50;99.90;;;;;;4996747;28;20056;-87
2022/06/12 05:24:11;;;;;;;14.23;9.82;;;14.50;99.90;;;;;;5000524;28;21695;-85
2022/06/12 05:26:40;;;;;;;10.52;7.88;;;14.50;99.90;;;;;;4985543;28;20465;-87
2022/06/12 05:29:19;;;;;;;13.30;8.35;;;14.50;99.90;;;;;;5007632;28;20454;-86
2022/06/12 05:31:46;;;;;;;14.80;8.25;;;14.60;99.90;;;;;;4979512;28;20104;-86
2022/06/12 05:34:19;;;;;;;12.77;8.60;;;14.70;99.90;;;;;;5001807;28;20052;-85
2022/06/12 05:36:52;;;;;;;19.20;9.45;;;14.70;99.90;;;;;;4996853;28;20041;-86
2022/06/12 05:39:20;;;;;;;13.30;8.70;;;14.80;99.90;;;;;;5004155;28;20137;-86
2022/06/12 05:41:47;;;;;;;9.75;7.05;;;14.80;99.90;;;;;;5020778;28;20417;-86
2022/06/12 05:44:20;;;;;;;9.63;7.07;;;14.80;99.90;;;;;;4999271;28;20045;-85
2022/06/12 05:46:47;;;;;;;7.65;6.93;;;14.80;99.90;;;;;;5002969;28;20136;-86
2022/06/12 05:49:18;;;;;;;9.88;7.65;;;14.90;99.90;;;;;;5004147;28;20412;-85
2022/06/12 05:51:50;;;;;;;7.30;6.60;;;14.90;99.90;;;;;;5001309;28;20064;-86
2022/06/12 05:54:22;;;;;;;8.35;6.88;;;15.00;99.90;;;;;;4991452;28;20513;-85
2022/06/12 05:56:49;;;;;;;9.77;7.53;;;15.10;99.90;;;;;;5003944;28;20038;-86
2022/06/12 05:59:16;;;;;;;14.43;13.15;;;15.20;99.90;;;;;;5000875;28;20102;-85
2022/06/12 06:01:43;;;;;;;11.55;10.43;;;15.20;99.90;;;;;;5003333;28;20113;-85
2022/06/12 06:04:10;;;;;;;15.25;12.77;;;15.30;99.90;;;;;;5002216;28;20141;-85
2022/06/12 06:06:46;;;;;;;17.17;13.70;;;15.40;99.90;;;;;;5001392;28;20052;-86
2022/06/12 06:09:19;;;;;;;13.35;9.43;;;15.50;99.90;;;;;;5002142;28;20045;-86
2022/06/12 06:11:47;;;;;;;12.40;9.00;;;15.60;99.90;;;;;;5002921;28;20052;-86
2022/06/12 06:14:19;;;;;;;8.90;8.00;;;15.60;99.90;;;;;;5001926;28;20069;-86
2022/06/12 06:16:51;;;;;;;8.88;7.80;;;15.70;99.90;;;;;;4998802;28;20457;-86
2022/06/12 06:19:22;;;;;;;12.45;9.35;;;15.80;99.90;;;;;;4998595;28;20505;-86
2022/06/12 06:21:49;;;;;;;8.90;8.00;;;15.80;99.90;;;;;;5003557;28;20100;-85
2022/06/12 06:24:21;;;;;;;9.30;7.38;;;15.90;99.90;;;;;;5001661;28;20129;-86
2022/06/12 06:26:53;;;;;;;13.88;11.75;;;16.00;99.90;;;;;;4995456;28;20048;-86
2022/06/12 06:29:25;;;;;;;11.10;7.50;;;16.10;99.90;;;;;;5016552;28;20070;-86
2022/06/12 06:31:57;;;;;;;12.82;10.20;;;16.20;99.90;;;;;;5002788;28;20056;-86
2022/06/12 06:34:23;;;;;;;12.38;9.95;;;16.30;99.90;;;;;;5000424;28;20044;-86
2022/06/12 06:36:55;;;;;;;15.40;10.88;;;16.40;99.90;;;;;;5001458;28;20042;-86
2022/06/12 06:39:27;;;;;;;9.50;8.50;;;16.50;99.90;;;;;;4985965;28;20498;-85
2022/06/12 06:41:59;;;;;;;8.10;7.18;;;16.50;99.90;;;;;;5002445;28;20056;-86
2022/06/12 06:47:10;;;;;;;10.50;7.88;;;16.70;99.90;;;;;;5019265;28;20048;-85
2022/06/12 06:49:42;;;;;;;8.18;6.80;;;16.90;99.90;;;;;;5001829;28;20100;-85
2022/06/12 06:52:14;;;;;;;6.50;5.90;;;17.00;99.90;;;;;;4984254;28;20516;-85
2022/06/12 06:54:46;;;;;;;6.57;5.47;;;17.20;99.90;;;;;;5014243;28;20046;-85
2022/06/12 06:57:13;;;;;;;6.95;6.32;;;17.30;99.90;;;;;;5001854;28;20042;-86
2022/06/12 06:59:45;;;;;;;4.70;4.22;;;17.40;99.90;;;;;;5002135;28;20042;-86
2022/06/12 07:02:16;;;;;;;6.70;3.60;;;17.60;99.90;;;;;;5003345;28;20034;-85
2022/06/12 07:04:48;;;;;;;5.03;4.35;;;17.80;99.90;;;;;;5000138;28;20049;-86
2022/06/12 07:07:15;;;;;;;4.35;3.85;;;17.90;99.90;;;;;;4984780;28;20042;-86
2022/06/12 07:09:42;;;;;;;4.15;3.17;;;18.00;99.90;;;;;;5019699;28;20152;-86
2022/06/12 07:12:13;;;;;;;3.90;3.42;;;18.20;99.90;;;;;;5000726;28;20095;-85
2022/06/12 07:14:40;;;;;;;3.67;2.58;;;18.40;99.90;;;;;;4996300;28;20050;-85
2022/06/12 07:17:07;;;;;;;3.30;2.58;;;18.50;99.90;;;;;;4984649;28;20042;-85
2022/06/12 07:19:34;;;;;;;3.25;2.95;;;18.80;99.90;;;;;;5001245;28;20445;-86
2022/06/12 07:22:05;;;;;;;2.47;2.28;;;19.00;99.90;;;;;;5001665;28;20044;-85
2022/06/12 07:24:32;;;;;;;3.42;2.72;;;19.30;99.90;;;;;;4999339;28;20038;-85
2022/06/12 07:26:59;;;;;;;4.43;2.70;;;19.50;99.90;;;;;;5000586;28;20057;-82
2022/06/12 07:29:26;;;;;;;2.53;2.33;;;19.70;99.90;;;;;;4984942;28;20053;-86
2022/06/12 07:31:53;;;;;;;3.38;2.80;;;19.80;99.90;;;;;;5001512;28;20053;-85
2022/06/12 07:34:21;;;;;;;3.08;2.85;;;19.80;99.90;;;;;;4999675;28;20038;-83
2022/06/12 07:36:50;;;;;;;2.75;2.55;;;20.00;99.90;;;;;;4998741;28;20061;-82
2022/06/12 07:39:21;;;;;;;5.05;2.60;;;20.10;99.90;;;;;;4999722;28;20041;-81
2022/06/12 07:41:54;;;;;;;3.30;2.80;;;20.20;99.90;;;;;;5001243;28;20527;-84
2022/06/12 07:44:28;;;;;;;3.88;3.58;;;20.30;99.90;;;;;;4999389;28;20034;-85
2022/06/12 07:46:57;;;;;;;4.60;3.72;;;20.40;99.90;;;;;;4999093;28;20129;-85
2022/06/12 07:49:26;;;;;;;3.83;3.33;;;20.50;99.90;;;;;;4983790;28;20050;-85
2022/06/12 07:51:54;;;;;;;3.25;2.75;;;20.60;99.90;;;;;;5001684;28;20053;-85
2022/06/12 07:54:22;;;;;;;3.47;2.75;;;20.70;99.90;;;;;;5000176;28;20070;-86
2022/06/12 07:56:49;;;;;;;4.03;3.63;;;20.80;99.90;;;;;;5000525;28;20050;-86
2022/06/12 07:59:16;;;;;;;4.00;2.55;;;20.90;99.90;;;;;;4982568;28;20593;-86
2022/06/12 08:01:48;;;;;;;3.90;2.72;;;21.00;99.90;;;;;;4997309;28;20057;-86
2022/06/12 08:04:20;;;;;;;3.40;3.08;;;21.10;99.90;;;;;;5000627;28;20060;-86
2022/06/12 08:06:47;;;;;;;3.50;2.65;;;21.30;99.90;;;;;;5001361;28;20068;-83
2022/06/12 08:09:16;;;;;;;4.53;3.67;;;21.40;99.90;;;;;;4984962;28;20069;-86
2022/06/12 08:11:45;;;;;;;15.50;4.28;;;21.40;99.90;;;;;;5001891;28;20050;-85
2022/06/12 08:14:13;;;;;;;4.78;2.72;;;21.50;99.90;;;;;;5000681;28;20053;-86
2022/06/12 08:16:45;;;;;;;2.60;2.40;;;21.60;99.90;;;;;;5001064;28;20502;-86
2022/06/12 08:22:19;;;;;;;4.78;3.92;;;21.80;99.90;;;;;;4918194;29;20057;-86
2022/06/12 08:24:51;;;;;;;3.45;3.15;;;21.90;99.90;;;;;;4975913;28;20652;-86
2022/06/12 08:27:23;;;;;;;3.25;2.30;;;22.00;99.90;;;;;;5000880;28;20038;-85
2022/06/12 08:29:54;;;;;;;2.67;2.47;;;22.20;99.90;;;;;;5016602;28;20046;-82
2022/06/12 08:32:26;;;;;;;3.95;2.85;;;22.30;99.90;;;;;;4998241;28;20041;-85
2022/06/12 08:35:01;;;;;;;3.47;2.25;;;22.50;99.90;;;;;;4998919;28;20068;-86
2022/06/12 08:37:32;;;;;;;3.05;2.63;;;22.50;99.90;;;;;;4982144;28;20146;-85
2022/06/12 08:39:59;;;;;;;3.35;2.30;;;22.60;99.90;;;;;;5017935;28;20060;-85
2022/06/12 08:43:02;;;;;;;4.93;2.50;;;22.80;99.90;;;;;;5000216;28;20069;-85
2022/06/12 08:45:58;;;;;;;3.08;2.13;;;22.90;99.90;;;;;;4965386;28;20041;-83
2022/06/12 08:48:56;;;;;;;2.95;2.65;;;23.00;99.90;;;;;;4993970;28;20050;-84
2022/06/12 08:51:23;;;;;;;3.03;2.30;;;23.10;99.90;;;;;;4981685;28;20141;-86
2022/06/12 08:54:20;;;;;;;2.83;2.20;;;23.30;99.90;;;;;;4995620;28;20063;-85
2022/06/12 08:57:09;;;;;;;3.63;2.20;;;23.40;99.90;;;;;;4999163;28;20056;-86
2022/06/12 09:00:00;;;;;;;2.35;2.03;;;23.60;99.90;;;;;;5014133;28;20046;-84
2022/06/12 09:02:32;;;;;;;2.90;2.22;;;23.70;99.90;;;;;;5014639;28;20535;-86
2022/06/12 09:05:07;;;;;;;4.93;2.25;;;23.80;99.90;;;;;;4999378;28;20527;-85
2022/06/12 09:07:49;;;;;;;3.00;2.45;;;24.00;99.90;;;;;;5011289;28;20504;-84
2022/06/12 09:10:30;;;;;;;3.65;2.17;;;24.10;99.90;;;;;;4977146;28;20563;-85
2022/06/12 09:13:09;;;;;;;2.72;2.30;;;24.20;99.90;;;;;;4978434;28;20149;-85
2022/06/12 09:16:03;;;;;;;2.55;2.10;;;24.20;99.90;;;;;;4984668;28;20527;-85
2022/06/12 09:18:44;;;;;;;2.42;2.20;;;24.30;99.90;;;;;;4997001;28;20129;-85
2022/06/12 09:21:45;;;;;;;3.55;2.17;;;24.40;99.90;;;;;;4996487;28;20138;-85
2022/06/12 09:24:23;;;;;;;3.05;2.17;;;24.50;99.60;;;;;;4965493;28;20134;-85
2022/06/12 09:26:58;;;;;;;3.03;1.92;;;24.60;98.60;;;;;;5000119;28;20100;-85
2022/06/12 09:29:45;;;;;;;2.70;2.25;;;24.70;98.30;;;;;;4998404;28;20414;-87
2022/06/12 09:32:37;;;;;;;2.35;2.03;;;24.80;97.90;;;;;;4997207;28;20646;-87
2022/06/12 09:35:13;;;;;;;5.28;2.10;;;25.10;98.10;;;;;;4993668;28;20497;-86
2022/06/12 09:38:22;;;;;;;2.80;2.05;;;25.10;95.70;;;;;;4991310;28;20046;-85
2022/06/12 09:41:05;;;;;;;2.47;2.08;;;25.30;95.70;;;;;;5013269;28;20045;-86
2022/06/12 09:44:06;;;;;;;2.33;2.13;;;25.30;95.20;;;;;;4979461;28;20089;-85
2022/06/12 09:46:43;;;;;;;2.85;2.13;;;25.40;96.20;;;;;;4996586;28;20065;-86
2022/06/12 09:49:32;;;;;;;2.60;2.08;;;25.50;94.40;;;;;;4999089;28;20037;-86
2022/06/12 09:52:33;;;;;;;5.00;2.10;;;25.60;94.80;;;;;;5000159;28;20048;-85
2022/06/12 09:55:39;;;;;;;3.42;2.03;;;25.60;94.10;;;;;;4994056;28;20037;-86
2022/06/12 09:58:17;;;;;;;3.58;2.10;;;25.60;93.80;;;;;;4985373;28;20038;-86
2022/06/12 10:00:58;;;;;;;3.92;2.55;;;25.80;93.30;;;;;;4984567;28;20073;-86
2022/06/12 10:03:42;;;;;;;2.42;2.22;;;25.80;93.50;;;;;;5017056;28;20076;-86
2022/06/12 10:06:28;;;;;;;2.65;2.10;;;26.00;94.70;;;;;;4999869;28;20042;-86
2022/06/12 10:09:12;;;;;;;3.97;2.10;;;26.10;93.30;;;;;;4998170;28;20074;-86
2022/06/12 10:12:00;;;;;;;4.18;2.47;;;26.20;92.10;;;;;;4998668;28;20068;-86
2022/06/12 10:14:40;;;;;;;3.20;2.70;;;26.30;91.10;;;;;;5008631;28;20410;-86
2022/06/12 10:17:17;;;;;;;4.40;2.20;;;26.30;92.90;;;;;;4994834;28;20128;-84
2022/06/12 10:19:56;;;;;;;3.03;2.72;;;26.20;91.30;;;;;;4997204;28;20074;-84
2022/06/12 10:22:30;;;;;;;2.42;2.22;;;26.20;90.60;;;;;;5000746;28;20050;-86
2022/06/12 10:25:04;;;;;;;1.92;1.70;;;26.10;88.10;;;;;;4996064;28;20036;-86
2022/06/12 10:27:46;;;;;;;3.22;2.50;;;26.20;87.00;;;;;;5000084;28;20056;-86
2022/06/12 10:30:30;;;;;;;3.37;1.80;;;26.20;89.00;;;;;;4992849;28;20042;-85
2022/06/12 10:33:19;;;;;;;2.42;1.55;;;26.40;81.00;;;;;;4996488;28;20292;-86
2022/06/12 10:36:03;;;;;;;2.15;1.80;;;26.40;79.20;;;;;;4995140;28;20046;-86
2022/06/12 10:38:35;;;;;;;2.45;2.10;;;26.50;83.80;;;;;;4993887;28;20750;-86
2022/06/12 10:41:24;;;;;;;2.40;1.70;;;26.60;84.50;;;;;;4993398;28;20037;-85
2022/06/12 10:43:56;;;;;;;2.75;2.15;;;26.50;81.60;;;;;;4994858;28;20050;-85
2022/06/12 10:46:31;;;;;;;3.45;2.10;;;26.40;81.00;;;;;;4977385;28;20042;-84
2022/06/12 10:49:17;;;;;;;2.42;2.10;;;26.40;82.80;;;;;;4994914;28;20037;-86
2022/06/12 10:51:51;;;;;;;2.75;1.88;;;26.50;81.30;;;;;;5012886;28;20052;-86
2022/06/12 10:54:28;;;;;;;4.30;1.90;;;26.70;79.60;;;;;;4993204;28;20034;-86
2022/06/12 10:57:02;;;;;;;2.58;1.80;;;26.80;80.30;;;;;;4971022;28;20698;-86
2022/06/12 10:59:33;;;;;;;2.00;1.75;;;26.90;75.70;;;;;;4990983;28;20721;-86
2022/06/12 11:02:35;;;;;;;2.05;1.80;;;27.00;73.90;;;;;;4993285;28;20037;-86
2022/06/12 11:05:27;;;;;;;3.60;1.92;;;27.10;75.40;;;;;;4979394;28;20501;-86
2022/06/12 11:08:27;;;;;;;2.05;1.85;;;27.20;74.40;;;;;;4986719;28;20061;-85
2022/06/12 11:11:17;;;;;;;1.98;1.60;;;27.20;75.40;;;;;;4993651;28;20050;-86
2022/06/12 11:14:19;;;;;;;2.90;1.55;;;27.30;70.90;;;;;;4998080;28;20505;-86
2022/06/12 11:17:03;;;;;;;4.07;1.70;;;27.40;68.30;;;;;;4997905;28;20097;-86
2022/06/12 11:20:08;;;;;;;1.65;1.50;;;27.40;69.30;;;;;;4978273;28;20583;-86
2022/06/12 11:23:01;;;;;;;1.88;1.50;;;27.30;65.30;;;;;;4940982;29;20053;-85
2022/06/12 11:25:46;;;;;;;2.15;1.40;;;27.30;64.20;;;;;;4921864;29;20166;-85
2022/06/12 11:28:45;;;;;;;1.27;1.17;;;27.40;63.00;;;;;;4999170;28;20056;-86
2022/06/12 11:31:40;;;;;;;1.50;1.40;;;27.60;58.50;;;;;;5007076;28;20037;-86
2022/06/12 11:34:35;;;;;;;2.20;1.95;;;27.60;64.60;;;;;;5012244;28;20041;-86
2022/06/12 11:37:27;;;;;;;1.65;1.48;;;27.70;68.40;;;;;;4997928;28;20038;-86
2022/06/12 11:40:05;;;;;;;2.03;1.60;;;27.60;58.60;;;;;;5006674;28;20042;-85
2022/06/12 11:42:40;;;;;;;1.67;1.50;;;27.70;59.60;;;;;;4980651;28;20034;-85
2022/06/12 11:45:22;;;;;;;1.70;1.50;;;27.80;59.30;;;;;;4978830;28;20535;-85
2022/06/12 11:47:58;;;;;;;3.15;1.60;;;28.00;58.70;;;;;;4996145;28;20501;-86
2022/06/12 11:50:49;;;;;;;3.20;1.63;;;28.00;59.40;;;;;;5016118;28;20065;-86
2022/06/12 11:53:59;;;;;;;1.95;1.75;;;28.00;61.20;;;;;;4997506;28;20080;-86
2022/06/12 11:56:54;;;;;;;2.15;1.70;;;28.20;63.60;;;;;;5006308;28;20046;-86
2022/06/12 11:59:42;;;;;;;1.65;1.55;;;28.10;65.10;;;;;;5011670;28;20401;-86
2022/06/12 12:02:33;;;;;;;3.47;1.50;;;28.20;62.90;;;;;;5001913;28;20524;-85
2022/06/12 12:05:23;;;;;;;2.42;1.73;;;28.20;61.30;;;;;;4983306;28;20031;-85
2022/06/12 12:08:27;;;;;;;2.10;1.45;;;28.30;60.10;;;;;;4982359;28;20046;-86
2022/06/12 12:11:17;;;;;;;3.42;1.85;;;28.40;59.00;;;;;;4974472;28;20145;-86
2022/06/12 12:13:55;;;;;;;4.57;2.70;;;28.30;58.30;;;;;;4998047;28;20038;-85
2022/06/12 12:16:49;;;;;;;2.78;1.85;;;28.50;61.80;;;;;;5014055;28;20046;-85
2022/06/12 12:19:30;;;;;;;2.10;1.67;;;28.50;61.20;;;;;;4993635;28;20049;-85
2022/06/12 12:22:09;;;;;;;2.20;1.48;;;28.60;59.30;;;;;;5011698;28;20056;-85
2022/06/12 12:24:51;;;;;;;1.92;1.70;;;28.60;62.60;;;;;;4993624;28;20041;-85
2022/06/12 12:27:31;;;;;;;3.05;1.98;;;28.70;58.10;;;;;;5012129;28;20042;-85
2022/06/12 12:30:14;;;;;;;1.80;1.70;;;28.70;58.20;;;;;;4993103;28;20041;-86
2022/06/12 12:32:52;;;;;;;2.10;1.70;;;28.80;58.40;;;;;;5009074;28;20074;-84
2022/06/12 12:41:11;;;;;;;1.90;1.50;;;28.90;60.70;;;;;;4997675;28;19921;-86
2022/06/12 12:43:51;;;;;;;2.33;1.80;;;29.00;58.70;;;;;;4991921;28;20058;-86
2022/06/12 12:46:26;;;;;;;2.05;1.70;;;29.10;57.90;;;;;;4995274;28;20042;-86
2022/06/12 12:48:54;;;;;;;2.00;1.77;;;29.40;58.00;;;;;;4997534;28;20081;-86
2022/06/12 12:51:30;;;;;;;2.97;1.70;;;29.40;60.50;;;;;;4998925;28;20461;-86
2022/06/12 12:54:15;;;;;;;2.90;1.70;;;29.40;57.20;;;;;;4997059;28;20042;-86
2022/06/12 12:57:00;;;;;;;2.55;1.83;;;29.50;56.70;;;;;;5013343;28;20516;-86
2022/06/12 13:00:03;;;;;;;3.30;1.73;;;29.50;59.60;;;;;;4981349;28;20034;-86
2022/06/12 13:02:46;;;;;;;2.25;1.83;;;29.50;57.60;;;;;;5002621;28;20438;-87
2022/06/12 13:05:22;;;;;;;4.20;1.65;;;29.30;59.60;;;;;;4984208;28;20030;-86
2022/06/12 13:08:12;;;;;;;3.10;1.80;;;29.50;58.60;;;;;;5014251;28;20049;-85
2022/06/12 13:10:47;;;;;;;2.10;1.90;;;29.50;56.80;;;;;;4998375;28;20073;-85
2022/06/12 13:13:49;;;;;;;4.05;2.08;;;29.60;58.50;;;;;;4997395;28;20421;-86
2022/06/12 13:16:31;;;;;;;2.05;1.70;;;29.80;57.70;;;;;;4990716;28;20048;-86
2022/06/12 13:19:01;;;;;;;2.75;1.75;;;29.80;57.20;;;;;;5015124;28;20038;-85
2022/06/12 13:21:47;;;;;;;1.75;1.65;;;29.90;56.30;;;;;;4999035;28;20041;-85
2022/06/12 13:24:55;;;;;;;4.80;2.35;;;30.20;55.70;;;;;;4997550;28;20129;-85
2022/06/12 13:27:31;;;;;;;1.83;1.70;;;30.60;55.80;;;;;;4993609;28;20054;-86
2022/06/12 13:30:18;;;;;;;4.60;2.47;;;30.90;55.60;;;;;;5000669;28;20420;-86
2022/06/12 13:32:50;;;;;;;2.10;1.98;;;31.00;53.00;;;;;;4998464;28;20050;-85
2022/06/12 13:35:32;;;;;;;3.90;1.60;;;30.90;53.90;;;;;;5014316;28;20045;-86
2022/06/12 13:38:06;;;;;;;3.65;1.90;;;31.00;54.60;;;;;;4996751;28;20046;-85
2022/06/12 13:40:40;;;;;;;2.35;1.83;;;30.90;53.80;;;;;;5012195;28;20121;-85
2022/06/12 13:43:46;;;;;;;3.15;1.60;;;30.90;52.30;;;;;;4996007;28;20046;-86
2022/06/12 13:46:41;;;;;;;1.92;1.60;;;30.80;51.20;;;;;;4993591;28;20513;-85
2022/06/12 13:49:39;;;;;;;1.98;1.83;;;31.00;51.60;;;;;;4974574;28;20060;-85
2022/06/12 13:52:30;;;;;;;3.47;1.40;;;31.00;51.50;;;;;;5014136;28;20050;-85
2022/06/12 13:54:57;;;;;;;2.33;1.92;;;31.40;52.80;;;;;;4984302;28;20060;-85
2022/06/12 13:57:34;;;;;;;4.53;1.90;;;31.70;52.40;;;;;;4987287;28;20050;-85
2022/06/12 14:00:31;;;;;;;2.25;1.90;;;31.70;50.50;;;;;;4988939;28;20054;-85
2022/06/12 14:03:03;;;;;;;2.38;2.17;;;31.70;50.40;;;;;;4989318;28;20042;-85
2022/06/12 14:05:44;;;;;;;1.70;1.60;;;31.80;50.50;;;;;;4990779;28;20548;-85